Time;durP1;ratioP1;P1;durP2;ratioP2;P2;SDS_P1;SDS_P2;PMS_P1;PMS_P2;Temp;Humidity;BMP_temperature;BMP_pressure;BME280_temperature;BME280_humidity;BME280_pressure;Samples;Min_cycle;Max_cycle;Signal;HPM_P1;HPM_P2
2023/08/20 00:00:17;;;;;;;26.05;17.60;;;22.70;99.90;;;;;;5074860;28;20501;-79
2023/08/20 00:02:45;;;;;;;26.88;17.58;;;22.70;99.90;;;;;;5073083;28;20528;-81
2023/08/20 00:05:12;;;;;;;25.17;17.65;;;22.70;99.90;;;;;;5074406;28;20028;-80
2023/08/20 00:07:38;;;;;;;23.73;17.52;;;22.70;99.90;;;;;;5073011;28;20034;-80
2023/08/20 00:10:05;;;;;;;28.80;17.63;;;22.70;99.90;;;;;;5074489;28;20025;-82
2023/08/20 00:12:31;;;;;;;24.77;18.02;;;22.70;99.90;;;;;;5075514;28;20051;-80
2023/08/20 00:15:04;;;;;;;25.02;17.83;;;22.70;99.90;;;;;;5076018;28;20044;-79
2023/08/20 00:17:31;;;;;;;25.10;17.38;;;22.70;99.90;;;;;;5093158;28;20027;-81
2023/08/20 00:19:57;;;;;;;29.15;18.02;;;22.70;99.90;;;;;;5096708;28;20114;-82
2023/08/20 00:22:25;;;;;;;24.38;16.83;;;22.80;99.90;;;;;;5114215;28;20461;-81
2023/08/20 00:24:54;;;;;;;21.58;17.23;;;22.80;99.90;;;;;;5114920;28;20106;-81
2023/08/20 00:27:21;;;;;;;25.90;17.60;;;22.80;99.90;;;;;;5096703;28;20468;-80
2023/08/20 00:29:47;;;;;;;23.55;17.50;;;22.80;99.90;;;;;;5096203;28;20071;-79
2023/08/20 00:32:14;;;;;;;22.98;17.25;;;22.80;99.90;;;;;;5093750;28;20028;-82
2023/08/20 00:34:40;;;;;;;23.23;17.88;;;22.80;99.90;;;;;;5094374;28;20016;-81
2023/08/20 00:37:06;;;;;;;24.27;17.02;;;22.80;99.90;;;;;;5075889;28;20046;-80
2023/08/20 00:39:31;;;;;;;26.38;18.10;;;22.80;99.90;;;;;;5094505;28;20024;-81
2023/08/20 00:41:57;;;;;;;25.23;18.08;;;22.80;99.90;;;;;;5094371;28;20109;-82
2023/08/20 00:44:23;;;;;;;21.45;16.98;;;22.80;99.90;;;;;;5093940;28;20369;-81
2023/08/20 00:46:50;;;;;;;23.23;18.20;;;22.80;99.90;;;;;;5094147;28;20027;-80
2023/08/20 00:49:17;;;;;;;25.63;17.35;;;22.80;99.90;;;;;;5094271;28;20035;-80
2023/08/20 00:51:43;;;;;;;22.25;18.20;;;22.80;99.90;;;;;;5075883;28;20449;-79
2023/08/20 00:54:10;;;;;;;25.05;17.95;;;22.70;99.90;;;;;;5075860;28;20049;-80
2023/08/20 00:56:36;;;;;;;24.95;18.00;;;22.70;99.90;;;;;;5075752;28;20028;-80
2023/08/20 00:59:02;;;;;;;26.10;18.23;;;22.70;99.90;;;;;;5088038;28;20019;-80
2023/08/20 01:01:27;;;;;;;22.25;17.42;;;22.60;99.90;;;;;;5114495;28;20103;-81
2023/08/20 01:03:53;;;;;;;26.08;18.45;;;22.60;99.90;;;;;;5113626;28;20088;-80
2023/08/20 01:06:38;;;;;;;24.40;19.38;;;22.60;99.90;;;;;;5096135;28;20023;-81
2023/08/20 01:09:13;;;;;;;26.63;18.05;;;22.50;99.90;;;;;;5114074;28;20019;-79
2023/08/20 01:11:47;;;;;;;23.23;17.52;;;22.60;99.90;;;;;;5114037;28;20063;-82
2023/08/20 01:14:16;;;;;;;26.45;18.35;;;22.60;99.90;;;;;;5113890;28;20554;-80
2023/08/20 01:16:43;;;;;;;29.63;18.98;;;22.40;99.90;;;;;;5096018;28;20045;-79
2023/08/20 01:19:16;;;;;;;25.23;17.58;;;22.40;99.90;;;;;;5095501;28;20028;-80
2023/08/20 01:22:17;;;;;;;26.40;17.30;;;22.40;99.90;;;;;;5095975;28;20023;-81
2023/08/20 01:25:13;;;;;;;25.15;17.23;;;22.50;99.90;;;;;;5055861;28;20046;-79
2023/08/20 01:28:16;;;;;;;25.02;18.02;;;22.50;99.90;;;;;;5114193;28;20100;-81
2023/08/20 01:30:43;;;;;;;26.85;17.65;;;22.60;99.90;;;;;;5011389;28;20042;-81
2023/08/20 01:33:11;;;;;;;23.38;16.67;;;22.60;99.90;;;;;;5011116;28;20073;-79
2023/08/20 01:35:37;;;;;;;27.13;17.38;;;22.60;99.90;;;;;;5013738;28;20034;-80
2023/08/20 01:38:03;;;;;;;25.73;17.73;;;22.50;99.90;;;;;;5015451;28;20037;-80
2023/08/20 01:40:29;;;;;;;24.80;18.00;;;22.50;99.90;;;;;;5015077;28;20044;-81
2023/08/20 01:42:55;;;;;;;22.73;17.35;;;22.60;99.90;;;;;;4998806;28;20030;-80
2023/08/20 01:45:21;;;;;;;25.92;17.02;;;;;;;;;;4998860;28;20033;-79
2023/08/20 01:47:47;;;;;;;22.67;17.33;;;22.70;99.90;;;;;;4998621;28;20026;-80
2023/08/20 01:50:13;;;;;;;24.13;16.77;;;22.70;99.90;;;;;;4997225;28;20104;-82
2023/08/20 01:52:39;;;;;;;26.30;16.63;;;22.70;99.90;;;;;;4995403;28;20471;-80
2023/08/20 01:55:05;;;;;;;23.35;17.52;;;;;;;;;;4979134;28;20039;-81
2023/08/20 01:57:31;;;;;;;21.25;16.67;;;22.80;99.90;;;;;;4995620;28;20109;-80
2023/08/20 01:59:58;;;;;;;28.60;17.80;;;22.80;99.90;;;;;;4985089;28;20033;-82
2023/08/20 02:02:24;;;;;;;19.98;15.90;;;22.90;99.90;;;;;;4996877;28;20136;-81
2023/08/20 02:04:50;;;;;;;21.52;16.15;;;22.90;99.90;;;;;;4978972;28;20460;-79
2023/08/20 02:07:16;;;;;;;20.70;16.42;;;22.90;99.90;;;;;;5069776;28;20067;-80
2023/08/20 02:09:42;;;;;;;22.45;17.40;;;22.90;99.90;;;;;;5076460;28;20076;-81
2023/08/20 02:12:08;;;;;;;25.40;16.35;;;22.90;99.90;;;;;;5097499;28;20031;-82
2023/08/20 02:14:35;;;;;;;22.38;16.77;;;22.80;99.90;;;;;;5096970;28;20377;-80
2023/08/20 02:17:04;;;;;;;20.77;15.65;;;22.90;99.90;;;;;;5097045;28;20030;-84
2023/08/20 02:19:30;;;;;;;22.55;17.23;;;22.90;99.90;;;;;;5097012;28;20039;-81
2023/08/20 02:21:56;;;;;;;20.83;15.88;;;22.90;99.90;;;;;;5078490;28;20024;-80
2023/08/20 02:24:21;;;;;;;22.15;15.90;;;22.90;99.90;;;;;;5096674;28;20070;-81
2023/08/20 02:26:47;;;;;;;25.50;16.92;;;22.90;99.90;;;;;;5096649;28;20028;-81
2023/08/20 02:29:13;;;;;;;19.55;15.25;;;22.80;99.90;;;;;;5078374;28;20051;-82
2023/08/20 02:31:39;;;;;;;21.35;15.95;;;22.80;99.90;;;;;;5096521;28;20485;-80
2023/08/20 02:34:04;;;;;;;20.77;16.30;;;22.80;99.90;;;;;;5096648;28;20060;-81
2023/08/20 02:36:30;;;;;;;22.10;16.52;;;22.80;99.90;;;;;;5096706;28;20028;-80
2023/08/20 02:38:56;;;;;;;19.60;15.93;;;22.80;99.90;;;;;;5094752;28;20028;-80
2023/08/20 02:41:22;;;;;;;22.20;15.98;;;22.70;99.90;;;;;;5096238;28;20026;-81
2023/08/20 02:43:48;;;;;;;23.80;15.75;;;22.80;99.90;;;;;;5096174;28;20024;-80
2023/08/20 02:46:14;;;;;;;20.65;15.85;;;22.70;99.90;;;;;;5077972;28;20361;-80
2023/08/20 02:48:40;;;;;;;22.30;16.75;;;22.80;99.90;;;;;;5095867;28;20449;-81
2023/08/20 02:51:06;;;;;;;21.77;15.60;;;22.80;99.90;;;;;;5078398;28;20024;-81
2023/08/20 02:53:32;;;;;;;21.35;14.82;;;22.80;99.90;;;;;;5078185;28;20047;-81
2023/08/20 02:55:58;;;;;;;22.27;16.05;;;22.80;99.90;;;;;;5077807;28;20024;-79
2023/08/20 02:58:24;;;;;;;20.52;13.98;;;22.80;99.90;;;;;;5078217;28;20047;-80
2023/08/20 03:00:50;;;;;;;19.05;14.65;;;22.80;99.90;;;;;;5078077;28;20024;-80
2023/08/20 03:03:16;;;;;;;19.00;15.20;;;22.80;99.90;;;;;;5095655;28;20024;-80
2023/08/20 03:05:42;;;;;;;23.05;15.68;;;22.80;99.90;;;;;;5096193;28;20069;-79
2023/08/20 03:08:07;;;;;;;21.23;15.55;;;22.80;99.90;;;;;;5077882;28;20449;-80
2023/08/20 03:10:34;;;;;;;21.30;15.52;;;22.70;99.90;;;;;;5077464;28;20031;-80
2023/08/20 03:13:01;;;;;;;20.17;14.50;;;22.70;99.90;;;;;;5077530;28;20364;-82
2023/08/20 03:15:28;;;;;;;23.63;15.57;;;22.60;99.90;;;;;;5077859;28;20457;-80
2023/08/20 03:17:54;;;;;;;24.25;16.15;;;22.60;99.90;;;;;;5095394;28;20103;-80
2023/08/20 03:20:20;;;;;;;20.25;15.82;;;22.60;99.90;;;;;;5096003;28;20119;-80
2023/08/20 03:22:45;;;;;;;23.38;17.38;;;22.60;99.90;;;;;;5077530;28;20023;-81
2023/08/20 03:25:11;;;;;;;21.52;15.93;;;22.50;99.90;;;;;;5112101;28;20055;-82
2023/08/20 03:27:37;;;;;;;22.13;16.92;;;22.50;99.90;;;;;;5116151;28;20368;-80
2023/08/20 03:30:04;;;;;;;22.35;15.57;;;22.50;99.90;;;;;;5097951;28;20051;-81
2023/08/20 03:32:31;;;;;;;21.38;15.85;;;22.40;99.90;;;;;;5092157;28;20031;-79
2023/08/20 03:34:58;;;;;;;26.17;16.67;;;22.40;99.90;;;;;;5095504;28;20047;-79
2023/08/20 03:37:25;;;;;;;22.27;16.65;;;22.40;99.90;;;;;;5095613;28;20048;-80
2023/08/20 03:39:51;;;;;;;20.90;16.35;;;22.30;99.90;;;;;;5095260;28;20433;-79
2023/08/20 03:42:17;;;;;;;20.42;16.48;;;22.30;99.90;;;;;;5077022;28;20119;-80
2023/08/20 03:44:43;;;;;;;21.60;16.15;;;22.30;99.90;;;;;;5076846;28;20476;-81
2023/08/20 03:47:09;;;;;;;25.85;17.20;;;22.30;99.90;;;;;;5095421;28;20028;-81
2023/08/20 03:49:35;;;;;;;20.88;16.33;;;22.30;99.90;;;;;;5095703;28;20027;-80
2023/08/20 03:52:01;;;;;;;24.58;16.25;;;22.30;99.90;;;;;;5095230;28;20024;-79
2023/08/20 03:54:29;;;;;;;22.52;15.73;;;22.30;99.90;;;;;;5076992;28;20085;-80
2023/08/20 03:56:55;;;;;;;22.48;15.93;;;22.40;99.90;;;;;;5076614;28;20039;-80
2023/08/20 03:59:21;;;;;;;21.08;15.95;;;22.40;99.90;;;;;;5076340;28;20016;-80
2023/08/20 04:01:46;;;;;;;24.58;17.38;;;22.40;99.90;;;;;;5076990;28;20115;-80
2023/08/20 04:04:12;;;;;;;20.63;15.88;;;22.30;99.90;;;;;;5076799;28;20537;-81
2023/08/20 04:06:38;;;;;;;22.13;15.52;;;22.40;99.90;;;;;;5094676;28;20035;-79
2023/08/20 04:09:05;;;;;;;21.65;15.77;;;22.40;99.90;;;;;;5094909;28;20027;-82
2023/08/20 04:11:31;;;;;;;24.33;15.98;;;22.40;99.90;;;;;;5094921;28;20073;-78
2023/08/20 04:13:57;;;;;;;20.42;15.05;;;22.40;99.90;;;;;;5076110;28;20542;-79
2023/08/20 04:16:22;;;;;;;21.60;16.70;;;22.40;99.90;;;;;;5094619;28;20024;-81
2023/08/20 04:18:48;;;;;;;24.92;15.45;;;22.40;99.90;;;;;;5095017;28;20020;-82
2023/08/20 04:21:14;;;;;;;26.52;16.90;;;22.40;99.90;;;;;;5076210;28;20111;-79
2023/08/20 04:23:41;;;;;;;30.15;16.63;;;22.40;99.90;;;;;;5094334;28;20024;-79
2023/08/20 04:26:07;;;;;;;25.45;16.95;;;22.40;99.90;;;;;;5094369;28;20024;-80
2023/08/20 04:28:33;;;;;;;19.88;15.65;;;22.40;99.90;;;;;;5094287;28;20027;-80
2023/08/20 04:31:00;;;;;;;21.15;16.50;;;22.50;99.90;;;;;;5099069;28;20388;-80
2023/08/20 04:33:26;;;;;;;25.92;16.20;;;22.40;99.90;;;;;;5083902;28;20093;-79
2023/08/20 04:35:52;;;;;;;23.15;15.80;;;22.40;99.90;;;;;;5076028;28;20032;-81
2023/08/20 04:38:18;;;;;;;19.95;15.32;;;22.40;99.90;;;;;;5094441;28;20024;-81
2023/08/20 04:40:48;;;;;;;24.10;16.92;;;22.50;99.90;;;;;;5094143;28;20052;-81
2023/08/20 04:43:14;;;;;;;24.63;15.63;;;22.50;99.90;;;;;;5076055;28;20453;-78
2023/08/20 04:45:41;;;;;;;21.52;15.82;;;22.50;99.90;;;;;;5083991;28;20437;-80
2023/08/20 04:48:07;;;;;;;21.15;15.48;;;22.50;99.90;;;;;;5069809;28;20020;-80
2023/08/20 04:50:32;;;;;;;20.83;15.23;;;22.50;99.90;;;;;;5096385;28;20119;-81
2023/08/20 04:53:01;;;;;;;28.08;15.35;;;22.60;99.90;;;;;;5095926;28;20373;-79
2023/08/20 04:55:27;;;;;;;25.00;17.55;;;22.60;99.90;;;;;;5114543;28;20404;-80
2023/08/20 04:57:53;;;;;;;21.25;15.25;;;22.60;99.90;;;;;;5114239;28;20421;-79
2023/08/20 05:00:19;;;;;;;21.17;14.43;;;22.70;99.90;;;;;;5096224;28;20122;-82
2023/08/20 05:02:45;;;;;;;23.27;15.18;;;22.70;99.90;;;;;;5113729;28;20020;-81
2023/08/20 05:05:11;;;;;;;20.73;15.07;;;22.70;99.90;;;;;;5114090;28;20076;-80
2023/08/20 05:07:37;;;;;;;23.42;15.27;;;22.80;99.90;;;;;;5089829;28;20031;-79
2023/08/20 05:10:04;;;;;;;29.08;14.60;;;22.90;99.90;;;;;;5075427;28;20020;-79
2023/08/20 05:12:30;;;;;;;21.20;14.68;;;;;;;;;;5093907;28;20366;-81
2023/08/20 05:14:56;;;;;;;21.17;14.85;;;;;;;;;;5075782;28;20487;-78
2023/08/20 05:17:23;;;;;;;18.42;14.18;;;;;;;;;;5093485;28;20056;-80
2023/08/20 05:19:49;;;;;;;21.00;15.25;;;;;;;;;;5093646;28;20027;-79
2023/08/20 05:22:15;;;;;;;21.88;14.02;;;;;;;;;;5075704;28;20020;-79
2023/08/20 05:24:41;;;;;;;17.85;13.38;;;;;;;;;;5075450;28;20453;-80
2023/08/20 05:27:14;;;;;;;19.65;14.05;;;;;;;;;;5093838;28;20025;-80
2023/08/20 05:29:40;;;;;;;20.48;14.95;;;;;;;;;;5093572;28;20028;-78
2023/08/20 05:32:06;;;;;;;20.73;14.50;;;;;;;;;;5094054;28;20042;-80
2023/08/20 05:34:33;;;;;;;20.02;15.23;;;;;;;;;;5076016;28;20035;-79
2023/08/20 05:36:59;;;;;;;19.67;13.98;;;;;;;;;;5093502;28;20043;-79
2023/08/20 05:39:28;;;;;;;18.58;14.48;;;;;;;;;;5091612;28;20035;-79
2023/08/20 05:41:55;;;;;;;22.15;14.52;;;;;;;;;;5093570;28;20020;-79
2023/08/20 05:44:21;;;;;;;17.25;13.82;;;;;;;;;;5075127;28;20031;-79
2023/08/20 05:46:47;;;;;;;18.15;13.32;;;;;;;;;;5093635;28;20020;-78
2023/08/20 05:49:17;;;;;;;20.13;14.32;;;;;;;;;;5093969;28;20047;-78
2023/08/20 05:51:43;;;;;;;18.75;14.25;;;;;;;;;;5093165;28;20024;-79
2023/08/20 05:54:10;;;;;;;22.20;15.02;;;;;;;;;;5075460;28;20024;-80
2023/08/20 05:56:36;;;;;;;18.00;13.93;;;;;;;;;;5075525;28;20089;-81
2023/08/20 05:59:02;;;;;;;19.60;14.30;;;;;;;;;;5092972;28;20115;-79
2023/08/20 06:01:28;;;;;;;19.15;13.95;;;;;;;;;;5093691;28;20028;-79
2023/08/20 06:03:54;;;;;;;20.02;13.57;;;;;;;;;;5093134;28;20027;-80
2023/08/20 06:06:22;;;;;;;20.77;14.38;;;;;;;;;;5093093;28;20020;-80
2023/08/20 06:08:48;;;;;;;18.27;12.80;;;;;;;;;;5075560;28;20479;-81
2023/08/20 06:11:14;;;;;;;19.27;12.93;;;;;;;;;;5093518;28;20016;-81
2023/08/20 06:13:40;;;;;;;20.40;13.43;;;;;;;;;;5092825;28;20490;-81
2023/08/20 06:16:08;;;;;;;17.23;12.80;;;;;;;;;;5075256;28;20020;-80
2023/08/20 06:18:34;;;;;;;16.77;12.90;;;;;;;;;;5074905;28;20047;-82
2023/08/20 06:21:00;;;;;;;15.85;12.52;;;;;;;;;;5094426;28;20441;-79
2023/08/20 06:23:26;;;;;;;21.00;13.10;;;;;;;;;;5096929;28;20028;-81
2023/08/20 06:25:52;;;;;;;20.42;13.40;;;;;;;;;;5096669;28;20024;-81
2023/08/20 06:28:18;;;;;;;19.58;12.82;;;;;;;;;;5078753;28;20044;-80
2023/08/20 06:30:47;;;;;;;19.60;13.07;;;;;;;;;;5096952;28;20024;-80
2023/08/20 06:33:13;;;;;;;17.20;12.00;;;;;;;;;;5096116;28;20032;-80
2023/08/20 06:35:41;;;;;;;16.15;12.45;;;;;;;;;;5078494;28;20027;-79
2023/08/20 07:33:32;;;;;;;18.00;10.00;;;;;;;;;;5103151;27;20668;-84
2023/08/20 07:35:58;;;;;;;15.07;10.80;;;;;;;;;;5085566;28;20067;-83
2023/08/20 07:38:24;;;;;;;13.95;10.68;;;;;;;;;;5069996;28;20027;-84
2023/08/20 07:40:50;;;;;;;16.73;10.50;;;;;;;;;;5070016;28;20119;-86
2023/08/20 07:43:16;;;;;;;15.57;10.63;;;;;;;;;;5069330;28;20025;-86
2023/08/20 07:45:42;;;;;;;14.80;10.32;;;;;;;;;;5069768;28;20016;-84
2023/08/20 07:48:08;;;;;;;16.73;10.35;;;;;;;;;;5069354;28;20035;-85
2023/08/20 08:31:49;;;;;;;17.05;9.35;;;;;;;;;;5168052;27;20323;-80
2023/08/20 08:34:15;;;;;;;34.45;10.32;;;;;;;;;;5152623;27;20091;-78
2023/08/20 08:36:41;;;;;;;16.90;9.20;;;;;;;;;;5152819;27;20027;-80
2023/08/20 08:39:07;;;;;;;12.75;8.98;;;;;;;;;;5146192;27;20023;-83
2023/08/20 08:41:36;;;;;;;22.98;8.73;;;;;;;;;;5147370;27;20031;-81
2023/08/20 08:44:02;;;;;;;14.52;7.72;;;;;;;;;;5133596;27;20019;-82
2023/08/20 08:46:28;;;;;;;16.70;8.23;;;;;;;;;;5152843;27;20030;-80
2023/08/20 08:50:56;;;;;;;18.95;8.70;;;;;;;;;;5173221;27;20326;-80
2023/08/20 08:53:24;;;;;;;26.65;14.15;;;;;;;;;;5113801;28;20066;-80
2023/08/20 08:55:50;;;;;;;14.98;10.52;;;;;;;;;;5117573;27;20067;-82
2023/08/20 08:58:16;;;;;;;15.38;8.75;;;;;;;;;;5119466;28;20427;-82
2023/08/20 09:00:42;;;;;;;377.92;263.10;;;;;;;;;;5113617;28;20028;-80
2023/08/20 09:03:08;;;;;;;30.15;22.17;;;;;;;;;;5113136;28;20557;-82
2023/08/20 09:05:46;;;;;;;13.63;8.80;;;;;;;;;;5113648;28;20060;-81
2023/08/20 09:08:19;;;;;;;45.90;23.52;;;;;;;;;;5113540;28;20023;-83
2023/08/20 09:10:45;;;;;;;36.67;18.10;;;;;;;;;;5131371;27;20045;-81
2023/08/20 09:13:11;;;;;;;13.10;8.48;;;;;;;;;;5113491;28;20031;-77
2023/08/20 09:15:37;;;;;;;430.55;291.10;;;;;;;;;;5130667;27;20539;-80
2023/08/20 09:18:04;;;;;;;19.83;11.95;;;;;;;;;;5130176;27;20031;-80
2023/08/20 09:20:36;;;;;;;12.07;9.05;;;;;;;;;;5130738;27;20031;-82
2023/08/20 09:23:03;;;;;;;632.80;426.88;;;;;;;;;;5112587;28;20023;-80
2023/08/20 09:25:29;;;;;;;371.92;232.98;;;;;;;;;;5130816;27;20019;-83
2023/08/20 09:27:55;;;;;;;91.68;53.50;;;;;;;;;;5112942;28;20026;-83
2023/08/20 09:30:21;;;;;;;46.08;30.48;;;;;;;;;;5112975;27;20346;-82
2023/08/20 09:33:03;;;;;;;85.80;42.22;;;;;;;;;;5138514;27;20015;-83
2023/08/20 09:35:29;;;;;;;127.00;88.68;;;;;;;;;;5113010;28;20061;-83
2023/08/20 09:38:01;;;;;;;69.90;44.30;;;;;;;;;;5130768;27;20547;-82
2023/08/20 09:40:28;;;;;;;51.63;37.17;;;;;;;;;;5151487;27;20031;-83
2023/08/20 09:42:58;;;;;;;37.85;22.27;;;;;;;;;;5133257;27;20027;-85
2023/08/20 09:45:29;;;;;;;62.63;39.83;;;;;;;;;;5122787;28;20031;-83
2023/08/20 09:47:56;;;;;;;328.70;226.85;;;;;;;;;;5111213;28;20027;-83
2023/08/20 09:50:23;;;;;;;32.83;17.40;;;;;;;;;;5110552;28;20055;-84
2023/08/20 09:52:57;;;;;;;31.92;20.48;;;;;;;;;;5130216;27;20045;-84
2023/08/20 09:55:23;;;;;;;141.57;91.82;;;;;;;;;;5112415;28;20088;-83
2023/08/20 09:57:49;;;;;;;21.58;16.10;;;;;;;;;;5111891;28;20019;-82
2023/08/20 10:00:15;;;;;;;181.80;134.18;;;;;;;;;;5127561;27;20110;-82
2023/08/20 10:02:42;;;;;;;119.40;92.43;;;;;;;;;;5098407;28;20070;-82
2023/08/20 10:05:09;;;;;;;201.77;154.00;;;;;;;;;;5098414;28;20028;-82
2023/08/20 10:07:35;;;;;;;20.38;12.52;;;;;;;;;;5098326;28;20024;-81
2023/08/20 10:10:04;;;;;;;44.63;32.60;;;;;;;;;;5135439;27;20027;-81
2023/08/20 10:12:31;;;;;;;89.35;74.15;;;;;;;;;;5119293;27;20057;-83
2023/08/20 10:14:58;;;;;;;15.13;9.75;;;;;;;;;;5118793;27;20024;-83
2023/08/20 10:17:24;;;;;;;16.52;9.85;;;;;;;;;;5118628;27;20032;-81
2023/08/20 10:19:54;;;;;;;18.00;9.60;;;;;;;;;;5137591;27;20061;-80
2023/08/20 10:22:20;;;;;;;22.95;9.93;;;;;;;;;;5137289;27;20024;-83
2023/08/20 10:24:50;;;;;;;19.90;13.40;;;;;;;;;;5137426;27;20027;-83
2023/08/20 10:27:32;;;;;;;63.92;55.47;;;;;;;;;;5118473;27;20453;-85
2023/08/20 10:29:59;;;;;;;33.92;20.83;;;;;;;;;;5118835;27;20035;-86
2023/08/20 10:32:48;;;;;;;28.90;24.60;;;;;;;;;;5113112;28;20016;-83
2023/08/20 10:35:37;;;;;;;11.60;7.85;;;;;;;;;;5115126;28;20418;-86
2023/08/20 10:38:03;;;;;;;28.60;14.63;;;;;;;;;;5085402;28;20040;-86
2023/08/20 10:40:48;;;;;;;12.25;10.00;;;;;;;;;;5116443;28;20023;-84
2023/08/20 10:43:33;;;;;;;52.85;47.08;;;;;;;;;;5097555;28;20055;-83
2023/08/20 10:46:03;;;;;;;17.02;8.30;;;;;;;;;;5116308;28;20358;-85
2023/08/20 10:48:30;;;;;;;12.45;7.55;;;;;;;;;;5097456;28;20016;-85
2023/08/20 10:50:56;;;;;;;14.05;6.18;;;;;;;;;;5098035;28;20030;-83
2023/08/20 10:53:23;;;;;;;10.68;7.18;;;;;;;;;;5098096;28;20077;-85
2023/08/20 10:55:49;;;;;;;21.70;10.48;;;;;;;;;;5097705;28;20445;-83
2023/08/20 10:58:16;;;;;;;1018.95;722.92;;;;;;;;;;5097867;28;20092;-85
2023/08/20 11:00:42;;;;;;;74.93;54.03;;;;;;;;;;5097872;28;20027;-84
2023/08/20 11:03:11;;;;;;;131.60;100.18;;;;;;;;;;5097504;28;20103;-87
2023/08/20 11:05:40;;;;;;;34.15;17.10;;;;;;;;;;5097524;28;20027;-84
2023/08/20 11:08:07;;;;;;;18.27;11.85;;;;;;;;;;5097042;28;20461;-84
2023/08/20 11:10:36;;;;;;;27.52;16.05;;;;;;;;;;5097284;28;20051;-83
2023/08/20 11:13:03;;;;;;;23.50;9.48;;;;;;;;;;5096363;28;20042;-85
2023/08/20 11:15:29;;;;;;;176.65;130.07;;;;;;;;;;5097596;28;20123;-84
2023/08/20 11:17:55;;;;;;;21.45;12.13;;;;;;;;;;5097406;28;20085;-86
2023/08/20 11:20:23;;;;;;;17.55;14.00;;;;;;;;;;5097182;28;20032;-85
2023/08/20 11:22:50;;;;;;;9.60;7.50;;;;;;;;;;5097308;28;20028;-86
2023/08/20 11:25:16;;;;;;;15.38;11.82;;;;;;;;;;5097364;28;20023;-86
2023/08/20 11:27:42;;;;;;;10.00;6.68;;;;;;;;;;5097632;28;20024;-84
2023/08/20 11:30:11;;;;;;;16.15;6.72;;;;;;;;;;5096606;28;20049;-86
2023/08/20 11:32:38;;;;;;;9.73;7.22;;;;;;;;;;5102956;27;20027;-86
2023/08/20 11:35:08;;;;;;;13.60;7.03;;;;;;;;;;5103863;28;20044;-86
2023/08/20 11:37:56;;;;;;;102.20;77.03;;;;;;;;;;5098785;27;20023;-85
2023/08/20 11:40:23;;;;;;;48.05;38.13;;;;;;;;;;5101040;28;20038;-85
2023/08/20 11:42:49;;;;;;;484.08;386.27;;;;;;;;;;5105014;27;20015;-87
2023/08/20 11:45:15;;;;;;;531.58;460.55;;;;;;;;;;5098964;28;20027;-86
2023/08/20 11:47:42;;;;;;;63.25;48.35;;;;;;;;;;5096829;28;20531;-88
2023/08/20 11:50:09;;;;;;;17.48;10.50;;;;;;;;;;5096642;28;20074;-86
2023/08/20 11:52:36;;;;;;;124.95;87.45;;;;;;;;;;5115887;27;20478;-86
2023/08/20 11:55:02;;;;;;;1999.90;999.90;;;;;;;;;;5116847;27;20031;-86
2023/08/20 11:57:39;;;;;;;189.40;129.10;;;;;;;;;;5099443;28;20051;-87
2023/08/20 12:00:15;;;;;;;830.33;651.88;;;;;;;;;;5096556;28;20034;-87
2023/08/20 12:02:42;;;;;;;1257.30;870.97;;;;;;;;;;5096945;28;20032;-86
2023/08/20 12:05:08;;;;;;;491.13;388.23;;;;;;;;;;5095929;28;20043;-85
2023/08/20 12:07:34;;;;;;;98.70;74.50;;;;;;;;;;5108975;27;20077;-85
2023/08/20 12:10:20;;;;;;;584.60;436.58;;;;;;;;;;5107400;27;20062;-84
2023/08/20 12:13:02;;;;;;;148.40;107.60;;;;;;;;;;5104790;28;20035;-88
2023/08/20 12:15:29;;;;;;;64.95;44.42;;;;;;;;;;5111805;27;20110;-86
2023/08/20 12:17:58;;;;;;;28.23;18.75;;;;;;;;;;5108617;28;20372;-88
2023/08/20 12:23:21;;;;;;;12.32;9.05;;;;;;;;;;5113253;27;20089;-85
2023/08/20 12:25:53;;;;;;;18.63;7.45;;;;;;;;;;5108621;27;20404;-87
2023/08/20 12:28:19;;;;;;;11.00;5.85;;;;;;;;;;5108467;28;20027;-84
2023/08/20 12:30:46;;;;;;;16.27;10.57;;;;;;;;;;5103099;28;20031;-84
2023/08/20 12:33:12;;;;;;;20.33;8.98;;;;;;;;;;5096753;27;20049;-87
2023/08/20 14:48:42;;;;;;;29.65;4.05;;;;;;;;;;4859618;29;20511;-84
2023/08/20 14:57:57;;;;;;;6.20;4.03;;;;;;;;;;4824317;29;20044;-86
2023/08/20 15:16:15;;;;;;;17.88;4.30;;;;;;;;;;4770148;30;20034;-86
2023/08/20 15:41:02;;;;;;;;;;;;;;;;;;;;;
2023/08/20 15:43:25;;;;;;;11.93;4.20;;;;;;;;;;4780092;30;20388;-86
2023/08/20 15:45:54;;;;;;;6.53;4.22;;;;;;;;;;4786778;30;20047;-85
2023/08/20 15:48:25;;;;;;;7.47;4.30;;;;;;;;;;4787062;30;20070;-86
2023/08/20 15:50:57;;;;;;;;;;;;;;;;;;4787495;30;20039;-87
2023/08/20 15:53:23;;;;;;;7.72;3.92;;;;;;;;;;4786900;30;19967;-84
2023/08/20 15:55:52;;;;;;;10.93;4.35;;;;;;;;;;4786951;30;20031;-84
2023/08/20 15:58:22;;;;;;;9.05;4.80;;;;;;;;;;4815077;29;20048;-83
2023/08/20 16:00:51;;;;;;;7.97;3.80;;;;;;;;;;4859646;29;20639;-86
2023/08/20 16:03:27;;;;;;;8.10;4.47;;;;;;;;;;4859354;29;20025;-87
2023/08/20 16:05:54;;;;;;;5.53;4.20;;;;;;;;;;4859663;29;20044;-86
2023/08/20 16:08:23;;;;;;;9.20;4.38;;;;;;;;;;4901517;29;20144;-86
2023/08/20 16:10:49;;;;;;;7.30;4.30;;;;;;;;;;4918748;29;20042;-86
2023/08/20 16:13:15;;;;;;;7.78;4.22;;;;;;;;;;4899942;29;20035;-84
2023/08/20 16:15:41;;;;;;;12.10;4.80;;;;;;;;;;4919566;29;20031;-83
2023/08/20 16:18:07;;;;;;;6.10;4.38;;;;;;;;;;4919132;29;20028;-86
2023/08/20 16:20:36;;;;;;;20.30;5.05;;;;;;;;;;4919251;29;20111;-85
2023/08/20 16:23:02;;;;;;;7.50;3.85;;;;;;;;;;4918779;29;20060;-84
2023/08/20 16:25:28;;;;;;;22.77;4.82;;;;;;;;;;4919019;29;20023;-87
2023/08/20 16:27:54;;;;;;;8.07;4.75;;;;;;;;;;4919405;29;20419;-86
2023/08/20 16:37:16;;;;;;;;;;;;;;;;;;;;;
2023/08/20 16:40:22;;;;;;;13.75;5.97;;;;;;;;;;4840241;29;20046;-86
2023/08/20 16:46:18;;;;;;;6.20;4.30;;;;;;;;;;4826418;29;20611;-86
2023/08/20 16:58:54;;;;;;;9.68;4.10;;;;;;;;;;4802307;29;20067;-86
2023/08/20 17:01:53;;;;;;;;;;;;;;;;;;;;;
2023/08/20 17:04:35;;;;;;;14.98;4.82;;;;;;;;;;4803806;29;20035;-85
2023/08/20 17:07:09;;;;;;;11.38;4.90;;;;;;;;;;4802594;29;20133;-86
2023/08/20 17:09:50;;;;;;;13.15;4.93;;;;;;;;;;4802934;29;20047;-85
2023/08/20 17:12:19;;;;;;;7.47;5.18;;;;;;;;;;4806383;29;20188;-85
2023/08/20 17:14:57;;;;;;;8.05;5.07;;;;;;;;;;4805717;29;20509;-84
2023/08/20 17:17:29;;;;;;;10.55;5.15;;;;;;;;;;4791922;29;20107;-86
2023/08/20 17:20:01;;;;;;;13.88;5.15;;;;;;;;;;4788515;29;20159;-84
2023/08/20 17:22:29;;;;;;;12.02;5.57;;;;;;;;;;4801052;29;20417;-87
2023/08/20 17:25:31;;;;;;;10.90;6.10;;;;;;;;;;4811917;29;20490;-86
2023/08/20 17:28:03;;;;;;;;;;;;;;;;;;4855427;29;20060;-86
2023/08/20 17:30:29;;;;;;;10.85;5.65;;;;;;;;;;4851688;29;19935;-84
2023/08/20 17:32:55;;;;;;;9.13;5.80;;;;;;;;;;4863385;29;20092;-84
2023/08/20 17:35:24;;;;;;;12.00;6.38;;;;;;;;;;4918595;29;20538;-84
2023/08/20 17:37:58;;;;;;;8.38;6.43;;;;;;;;;;4920395;29;20075;-85
2023/08/20 17:40:24;;;;;;;10.23;6.40;;;;;;;;;;4921620;29;20124;-84
2023/08/20 17:42:53;;;;;;;15.75;7.65;;;;;;;;;;4918491;29;20463;-85
2023/08/20 17:45:19;;;;;;;19.35;8.93;;;;;;;;;;4935084;29;20024;-83
2023/08/20 17:47:48;;;;;;;17.08;9.30;;;;;;;;;;4921811;29;20459;-84
2023/08/20 17:50:16;;;;;;;22.05;11.25;;;;;;;;;;4921079;29;20036;-85
2023/08/20 17:52:45;;;;;;;28.15;11.23;;;;;;;;;;4922017;29;20119;-86
2023/08/20 17:55:13;;;;;;;43.00;15.75;;;;;;;;;;4921557;29;20423;-85
2023/08/20 17:57:39;;;;;;;50.45;20.00;;;;;;;;;;4937833;29;20087;-85
2023/08/20 18:00:08;;;;;;;70.75;22.83;;;;;;;;;;4937406;29;20034;-85
2023/08/20 18:02:35;;;;;;;45.90;17.67;;;;;;;;;;4921716;29;20378;-84
2023/08/20 18:05:03;;;;;;;46.00;15.15;;;;;;;;;;4921795;29;20539;-83
2023/08/20 18:07:29;;;;;;;32.63;12.43;;;;;;;;;;4921622;29;20088;-84
2023/08/20 18:09:55;;;;;;;26.00;11.27;;;;;;;;;;4921515;29;20436;-85
2023/08/20 18:12:21;;;;;;;26.45;9.93;;;;;;;;;;4937440;29;20566;-87
2023/08/20 18:14:48;;;;;;;22.40;8.45;;;;;;;;;;4937316;29;20039;-83
2023/08/20 18:17:14;;;;;;;18.30;7.93;;;;;;;;;;4936765;29;20055;-82
2023/08/20 18:19:40;;;;;;;15.68;8.02;;;;;;;;;;4937178;29;20031;-84
2023/08/20 18:22:06;;;;;;;16.27;7.20;;;;;;;;;;4921106;29;20035;-84
2023/08/20 18:24:32;;;;;;;14.80;7.20;;;;;;;;;;4921434;29;20075;-84
2023/08/20 18:26:59;;;;;;;15.27;6.78;;;;;;;;;;4921824;29;20066;-81
2023/08/20 18:29:25;;;;;;;19.90;7.15;;;;;;;;;;4922031;29;20032;-83
2023/08/20 18:31:51;;;;;;;10.35;6.75;;;;;;;;;;4921329;29;20031;-85
2023/08/20 18:34:18;;;;;;;16.35;7.88;;;;;;;;;;4908119;29;20063;-83
2023/08/20 18:36:45;;;;;;;17.25;7.93;;;;;;;;;;4921579;29;20153;-84
2023/08/20 18:39:14;;;;;;;20.13;7.85;;;;;;;;;;4919989;29;20111;-83
2023/08/20 18:41:40;;;;;;;15.63;8.07;;;;;;;;;;4921158;29;20132;-85